Time;durP1;ratioP1;P1;durP2;ratioP2;P2;SDS_P1;SDS_P2;PMS_P1;PMS_P2;Temp;Humidity;BMP_temperature;BMP_pressure;BME280_temperature;BME280_humidity;BME280_pressure;Samples;Min_cycle;Max_cycle;Signal;HPM_P1;HPM_P2
2022/07/05 00:00:32;;;;;;;4.37;1.40;;;18.90;47.30;;;18.11;47.21;98120.25;5018249;28;20491;-78
2022/07/05 00:02:59;;;;;;;1.73;1.20;;;18.90;47.60;;;17.90;47.58;98111.06;5020315;28;20459;-79
2022/07/05 00:05:26;;;;;;;3.10;1.20;;;18.80;47.50;;;17.83;48.00;98123.03;5016322;28;20468;-80
2022/07/05 00:07:54;;;;;;;3.33;1.37;;;18.70;47.80;;;17.75;48.29;98120.75;5012333;28;20460;-79
2022/07/05 00:10:23;;;;;;;1.30;1.20;;;18.60;47.90;;;17.66;48.84;98116.84;5018533;28;20444;-79
2022/07/05 00:12:50;;;;;;;1.53;1.43;;;18.50;48.10;;;17.75;48.47;98115.31;5010613;28;20455;-80
2022/07/05 00:15:18;;;;;;;3.83;1.13;;;18.50;48.30;;;17.60;48.62;98117.91;5007392;28;20569;-80
2022/07/05 00:17:46;;;;;;;2.93;1.30;;;18.50;48.20;;;17.70;48.71;98112.53;5017824;28;20471;-79
2022/07/05 00:20:13;;;;;;;6.17;1.37;;;18.40;48.40;;;17.53;49.05;98118.94;5009242;28;20478;-79
2022/07/05 00:22:41;;;;;;;1.10;1.00;;;18.40;48.40;;;17.48;49.27;98116.16;5001486;28;21244;-78
2022/07/05 00:25:09;;;;;;;2.83;1.30;;;18.40;48.50;;;17.52;49.55;98121.91;4999975;28;20479;-82
2022/07/05 00:27:38;;;;;;;1.27;1.17;;;18.30;48.80;;;17.18;50.17;98095.63;5001173;28;20451;-79
2022/07/05 00:30:06;;;;;;;1.73;1.20;;;18.20;49.10;;;17.30;49.95;98124.69;5001083;28;20474;-80
2022/07/05 00:32:33;;;;;;;1.40;1.30;;;18.10;49.00;;;17.40;49.66;98135.75;5003491;28;20478;-76
2022/07/05 00:35:01;;;;;;;3.20;1.10;;;18.20;49.00;;;17.34;49.69;98137.59;5019491;28;20470;-80
2022/07/05 00:37:28;;;;;;;1.37;1.27;;;18.10;48.80;;;17.24;49.72;98135.56;5018615;28;20475;-77
2022/07/05 00:39:55;;;;;;;1.80;1.30;;;18.10;48.90;;;17.22;49.97;98145.94;5008697;28;20459;-80
2022/07/05 00:42:23;;;;;;;1.63;1.33;;;18.10;49.00;;;17.25;50.14;98139.13;4999228;28;20521;-82
2022/07/05 00:45:34;;;;;;;2.23;1.27;;;18.10;49.10;;;17.17;50.41;98137.66;5000291;28;20463;-79
2022/07/05 00:48:02;;;;;;;1.57;1.20;;;18.00;49.10;;;17.14;50.91;98138.19;5002385;28;20473;-79
2022/07/05 00:50:48;;;;;;;1.50;1.30;;;18.00;49.30;;;17.07;50.80;98143.03;4996181;28;20470;-80
2022/07/05 00:53:15;;;;;;;1.47;1.30;;;18.00;49.50;;;17.07;50.72;98137.56;5002796;28;20456;-79
2022/07/05 00:55:45;;;;;;;1.40;1.27;;;17.90;49.50;;;16.73;51.13;98083.09;4995990;28;20898;-78
2022/07/05 00:58:13;;;;;;;1.50;1.40;;;17.90;49.70;;;17.07;51.23;98132.13;5004111;28;20561;-77
2022/07/05 01:00:41;;;;;;;2.40;1.30;;;17.90;50.00;;;16.91;51.70;98140.09;4998943;28;20459;-79
2022/07/05 01:03:09;;;;;;;3.50;1.50;;;17.80;49.90;;;16.64;51.90;98113.56;4999857;28;20470;-81
2022/07/05 01:05:36;;;;;;;2.53;1.30;;;17.70;50.00;;;16.78;51.87;98141.25;5004214;28;21227;-80
2022/07/05 01:08:05;;;;;;;1.47;1.37;;;17.70;50.20;;;16.79;51.84;98133.94;4999183;28;20468;-76
2022/07/05 01:10:33;;;;;;;2.60;1.47;;;17.70;50.30;;;16.69;52.86;98137.34;4996780;28;20526;-77
2022/07/05 01:13:00;;;;;;;1.53;1.20;;;17.60;50.40;;;16.63;52.64;98139.19;4997881;28;20474;-81
2022/07/05 01:15:28;;;;;;;3.00;1.43;;;17.50;50.50;;;16.61;53.02;98137.78;4996763;28;20468;-80
2022/07/05 01:17:57;;;;;;;1.93;1.60;;;17.50;50.80;;;16.57;53.30;98137.44;4998943;28;20479;-79
2022/07/05 01:20:27;;;;;;;2.70;1.30;;;17.40;51.00;;;16.42;53.75;98138.88;4997465;28;20468;-77
2022/07/05 01:22:59;;;;;;;2.43;1.17;;;17.30;51.10;;;16.37;53.99;98127.91;4994481;28;20455;-81
2022/07/05 01:25:28;;;;;;;3.33;1.77;;;17.30;51.30;;;16.36;54.05;98134.44;5013466;28;20505;-82
2022/07/05 01:27:57;;;;;;;2.10;1.80;;;17.20;51.40;;;16.29;54.15;98129.16;5000284;28;20451;-81
2022/07/05 01:30:25;;;;;;;2.90;2.10;;;17.20;51.60;;;16.25;54.25;98132.63;5016040;28;20451;-79
2022/07/05 01:32:53;;;;;;;2.23;1.70;;;17.20;51.80;;;16.14;54.88;98132.47;4997636;28;20479;-80
2022/07/05 01:35:23;;;;;;;4.00;1.80;;;17.10;52.00;;;16.13;55.11;98133.53;4998011;28;20471;-79
2022/07/05 01:37:52;;;;;;;2.60;1.50;;;17.00;52.10;;;16.03;55.32;98133.41;4999241;28;20506;-80
2022/07/05 01:40:21;;;;;;;1.90;1.73;;;17.00;52.30;;;15.98;55.38;98134.13;5000789;28;20490;-80
2022/07/05 01:42:49;;;;;;;1.63;1.53;;;16.90;52.40;;;15.92;55.57;98128.84;5001325;28;20458;-79
2022/07/05 01:45:38;;;;;;;5.20;1.90;;;16.80;52.50;;;15.87;55.80;98135.00;5002421;28;20463;-79
2022/07/05 01:48:08;;;;;;;3.13;1.40;;;16.80;52.70;;;15.80;56.63;98137.88;5005880;28;20451;-78
2022/07/05 01:50:41;;;;;;;1.60;1.50;;;16.70;52.90;;;15.99;55.55;98138.50;5009223;28;20458;-80
2022/07/05 01:53:16;;;;;;;1.80;1.70;;;16.80;53.00;;;15.55;56.21;98106.44;5000488;28;20524;-79
2022/07/05 01:55:45;;;;;;;1.73;1.63;;;16.70;52.90;;;15.67;56.54;98138.22;4996104;28;20477;-80
2022/07/05 01:58:13;;;;;;;1.80;1.67;;;16.60;53.20;;;15.64;56.67;98134.09;5010051;28;20464;-79
2022/07/05 02:01:05;;;;;;;1.83;1.67;;;16.60;53.30;;;15.56;57.38;98137.22;5000942;28;20542;-80
2022/07/05 02:03:33;;;;;;;4.20;1.80;;;16.40;53.50;;;15.62;56.94;98135.41;5003248;28;20464;-80
2022/07/05 02:06:00;;;;;;;1.87;1.73;;;16.50;53.60;;;15.54;57.35;98134.75;4998900;28;20467;-78
2022/07/05 02:08:31;;;;;;;2.17;1.50;;;16.40;53.60;;;15.47;57.50;98142.22;4992415;28;20510;-79
2022/07/05 02:10:59;;;;;;;2.50;1.90;;;16.40;53.80;;;15.56;57.23;98140.78;4995595;28;20455;-76
2022/07/05 02:13:27;;;;;;;4.27;1.80;;;16.40;53.90;;;15.62;57.28;98143.56;4995660;28;20512;-78
2022/07/05 02:15:55;;;;;;;3.33;2.00;;;16.40;54.00;;;15.45;58.21;98138.94;5004796;28;20920;-82
2022/07/05 02:18:22;;;;;;;2.23;1.80;;;16.40;54.20;;;15.36;57.91;98141.22;5000108;28;20483;-81
2022/07/05 02:20:49;;;;;;;2.50;1.80;;;16.30;54.30;;;15.37;58.07;98139.31;5004833;28;20506;-81
2022/07/05 02:23:17;;;;;;;1.83;1.73;;;16.30;54.50;;;15.26;58.30;98133.69;5002652;28;20478;-80
2022/07/05 02:25:44;;;;;;;2.30;2.10;;;16.20;54.70;;;15.26;58.75;98144.59;4990879;28;20490;-79
2022/07/05 02:28:14;;;;;;;4.83;2.13;;;16.20;54.80;;;15.18;58.82;98142.22;4999478;28;20942;-79
2022/07/05 02:30:41;;;;;;;1.90;1.80;;;16.10;54.90;;;14.96;58.77;98101.25;5004414;28;20811;-78
2022/07/05 02:33:09;;;;;;;2.33;1.80;;;16.10;55.10;;;15.10;59.02;98145.34;5017484;28;20478;-79
2022/07/05 02:35:37;;;;;;;2.37;1.70;;;16.10;55.20;;;15.12;59.19;98145.94;5004819;28;20474;-79
2022/07/05 02:38:04;;;;;;;4.63;2.10;;;16.10;55.40;;;14.95;59.79;98152.13;5003304;28;20953;-79
2022/07/05 02:40:32;;;;;;;1.83;1.70;;;15.90;55.60;;;14.91;60.12;98153.66;4999438;28;20459;-80
2022/07/05 02:42:59;;;;;;;3.27;2.00;;;15.90;55.80;;;14.99;59.74;98155.19;4998395;28;20582;-80
2022/07/05 02:45:28;;;;;;;2.70;2.40;;;15.90;56.00;;;14.97;59.86;98150.00;4995395;28;20856;-76
2022/07/05 02:47:55;;;;;;;2.53;1.97;;;15.80;55.90;;;14.96;60.21;98152.94;5003638;28;20459;-79
2022/07/05 02:50:23;;;;;;;2.53;1.90;;;15.90;56.30;;;14.85;60.36;98154.63;5007861;28;20458;-76
2022/07/05 02:52:52;;;;;;;1.97;1.87;;;15.80;56.30;;;14.78;60.05;98149.31;5001863;28;20566;-77
2022/07/05 02:55:20;;;;;;;2.70;2.50;;;15.70;56.50;;;14.73;60.59;98151.94;5016367;28;20536;-77
2022/07/05 02:57:48;;;;;;;4.97;2.23;;;15.60;56.70;;;14.73;60.47;98152.75;5000208;28;21048;-78
2022/07/05 03:00:16;;;;;;;2.20;2.00;;;15.60;56.70;;;14.66;60.84;98152.03;5003286;28;20467;-80
2022/07/05 03:02:45;;;;;;;3.67;1.93;;;15.50;57.10;;;14.60;61.38;98152.97;5004779;28;21078;-79
2022/07/05 03:05:13;;;;;;;2.40;2.20;;;15.50;57.30;;;14.43;61.71;98155.63;4999177;28;20485;-78
2022/07/05 03:07:40;;;;;;;6.77;2.60;;;15.40;57.60;;;14.35;62.09;98155.97;5012565;28;20467;-79
2022/07/05 03:10:07;;;;;;;2.83;2.63;;;15.30;58.30;;;14.31;62.21;98151.00;5001935;28;20454;-79
2022/07/05 03:12:35;;;;;;;2.47;2.27;;;15.20;58.40;;;14.33;62.43;98164.38;4996870;28;20643;-76
2022/07/05 03:15:02;;;;;;;3.20;2.20;;;15.20;58.60;;;14.29;62.84;98163.16;5005709;28;20466;-77
2022/07/05 03:17:29;;;;;;;3.60;2.53;;;15.20;58.90;;;14.49;62.13;98172.88;5002687;28;20467;-75
2022/07/05 03:19:59;;;;;;;2.80;2.30;;;15.20;59.20;;;14.29;61.96;98163.16;5024142;28;20462;-77
2022/07/05 03:22:26;;;;;;;4.53;2.47;;;15.20;58.70;;;14.30;62.76;98162.94;5020271;28;20526;-75
2022/07/05 03:24:53;;;;;;;2.83;2.50;;;15.20;59.20;;;14.24;62.22;98165.78;5020439;28;20514;-76
2022/07/05 03:27:20;;;;;;;2.47;2.27;;;15.20;59.20;;;14.33;62.05;98167.09;5019556;28;20508;-80
2022/07/05 03:29:47;;;;;;;3.07;2.63;;;15.20;59.00;;;14.38;61.20;98169.91;5015065;28;20517;-81
2022/07/05 03:32:15;;;;;;;4.70;2.90;;;15.30;58.60;;;14.54;61.00;98181.94;5000716;28;20466;-80
2022/07/05 03:34:42;;;;;;;2.60;2.40;;;15.40;58.60;;;14.40;61.76;98180.53;5017506;28;20467;-77
2022/07/05 03:37:11;;;;;;;2.67;2.47;;;15.30;58.70;;;14.29;62.17;98184.91;5005840;28;20473;-79
2022/07/05 03:39:38;;;;;;;2.27;2.17;;;15.30;58.90;;;14.25;62.17;98183.72;4997651;28;21008;-76
2022/07/05 03:42:06;;;;;;;7.97;2.50;;;15.30;59.00;;;14.47;61.71;98199.44;5000141;28;20454;-80
2022/07/05 03:44:34;;;;;;;2.20;2.00;;;15.30;58.90;;;14.47;61.27;98186.69;4998368;28;20460;-78
2022/07/05 03:47:01;;;;;;;5.27;3.20;;;15.40;58.70;;;14.60;61.10;98201.91;4997069;28;20464;-79
2022/07/05 03:49:28;;;;;;;2.70;2.50;;;15.40;58.70;;;14.52;61.70;98199.56;4999054;28;20911;-80
2022/07/05 03:51:56;;;;;;;2.30;2.10;;;15.40;58.90;;;14.53;61.96;98207.47;5001626;28;20488;-77
2022/07/05 03:54:24;;;;;;;3.50;2.87;;;15.40;59.40;;;14.47;62.36;98210.31;5002564;28;20459;-79
2022/07/05 03:56:52;;;;;;;5.10;2.63;;;15.40;59.70;;;14.55;62.16;98218.13;5006738;28;20466;-78
2022/07/05 03:59:19;;;;;;;3.50;2.60;;;15.40;59.90;;;14.58;61.93;98209.50;5027800;28;20488;-76
2022/07/05 04:01:46;;;;;;;2.90;2.57;;;15.50;59.80;;;14.59;61.75;98206.56;5017054;28;20541;-77
2022/07/05 04:04:14;;;;;;;3.20;2.00;;;15.50;59.60;;;14.86;61.67;98216.13;5002110;28;20470;-79
2022/07/05 04:06:41;;;;;;;3.30;3.00;;;15.70;60.00;;;14.87;61.19;98212.34;4998580;28;20482;-80
2022/07/05 04:09:09;;;;;;;3.03;2.73;;;15.80;59.60;;;15.23;59.94;98215.81;5001313;28;20469;-80
2022/07/05 04:11:37;;;;;;;3.57;2.53;;;16.10;59.00;;;16.14;58.11;98222.41;4998729;28;20492;-81
2022/07/05 04:14:05;;;;;;;2.77;2.20;;;16.80;58.30;;;17.03;54.82;98213.66;4996121;28;20538;-81
2022/07/05 04:16:33;;;;;;;3.20;2.90;;;18.00;56.50;;;17.67;52.66;98217.69;4999795;28;20530;-82
2022/07/05 04:19:00;;;;;;;2.93;2.63;;;18.70;55.00;;;18.35;50.54;98227.34;5006655;28;20545;-79
2022/07/05 04:21:27;;;;;;;3.23;2.60;;;19.40;53.50;;;19.00;48.61;98225.59;5001622;28;20880;-81
2022/07/05 04:23:54;;;;;;;2.83;2.63;;;20.10;52.30;;;19.72;47.04;98225.88;4999061;28;20463;-80
2022/07/05 04:26:22;;;;;;;6.83;2.60;;;20.80;51.30;;;20.36;45.92;98223.78;5011236;28;20522;-80
2022/07/05 04:28:51;;;;;;;3.17;2.97;;;21.40;51.00;;;20.66;45.54;98222.09;5000496;28;20477;-78
2022/07/05 04:31:18;;;;;;;3.50;2.40;;;22.20;50.30;;;20.94;43.92;98217.13;5005825;28;20474;-79
2022/07/05 04:33:45;;;;;;;5.33;3.00;;;22.70;49.00;;;21.86;42.66;98218.94;5002540;28;20847;-82
2022/07/05 04:36:12;;;;;;;3.30;3.10;;;23.40;48.70;;;21.38;43.35;98220.28;4996120;28;20460;-82
2022/07/05 04:38:39;;;;;;;3.70;2.60;;;23.60;48.00;;;21.87;42.04;98209.59;4995298;28;20518;-78
2022/07/05 04:41:07;;;;;;;9.00;4.57;;;23.80;47.60;;;22.70;40.67;98217.22;5011655;28;20466;-79
2022/07/05 04:43:34;;;;;;;10.03;4.50;;;24.00;47.70;;;22.70;40.78;98215.25;4998813;28;20968;-76
2022/07/05 04:46:03;;;;;;;6.17;4.43;;;23.90;47.80;;;22.90;40.79;98224.44;5002601;28;20468;-75
2022/07/05 04:48:31;;;;;;;3.30;3.00;;;24.10;47.40;;;23.75;38.28;98227.56;5015771;28;20506;-75
2022/07/05 04:50:58;;;;;;;3.73;3.13;;;24.90;46.90;;;22.97;39.35;98208.38;4996528;28;20485;-76
2022/07/05 04:53:26;;;;;;;4.13;3.47;;;24.80;46.40;;;22.61;39.83;98215.09;4996559;28;20792;-81
2022/07/05 04:55:53;;;;;;;3.17;2.87;;;24.30;46.50;;;22.66;40.36;98227.16;5004124;28;20509;-80
2022/07/05 04:58:21;;;;;;;4.17;3.00;;;24.40;46.70;;;23.06;39.01;98216.81;4999322;28;20530;-77
2022/07/05 05:00:48;;;;;;;2.30;2.10;;;24.50;46.50;;;23.02;38.98;98222.09;4998899;28;20459;-81
2022/07/05 05:03:17;;;;;;;2.90;2.50;;;24.50;45.90;;;23.58;38.01;98217.03;4999151;28;20454;-76
2022/07/05 05:05:44;;;;;;;3.43;2.37;;;24.70;46.20;;;23.28;38.24;98201.72;4996305;28;20485;-76
2022/07/05 05:08:11;;;;;;;4.47;2.03;;;24.90;46.00;;;22.47;40.26;98223.19;4998946;28;20456;-78
2022/07/05 05:10:39;;;;;;;6.07;2.30;;;24.80;45.90;;;22.21;40.57;98203.28;4995496;28;20489;-77
2022/07/05 05:13:06;;;;;;;3.53;2.63;;;24.60;45.90;;;22.67;39.90;98226.03;5013139;28;20811;-74
2022/07/05 05:15:34;;;;;;;2.53;2.20;;;24.40;46.00;;;23.75;38.18;98227.56;4993268;28;20461;-79
2022/07/05 05:18:02;;;;;;;2.50;2.30;;;24.80;46.10;;;24.02;37.80;98225.25;5017491;28;20459;-79
2022/07/05 05:20:32;;;;;;;5.30;2.30;;;25.10;45.80;;;24.12;37.31;98214.09;5001229;28;20585;-79
2022/07/05 05:22:59;;;;;;;2.70;2.37;;;25.70;45.60;;;23.40;39.18;98237.13;4995897;28;21449;-78
2022/07/05 05:25:28;;;;;;;2.03;1.93;;;25.30;45.40;;;23.92;37.72;98231.75;4997341;28;20461;-78
2022/07/05 05:27:56;;;;;;;2.10;1.83;;;25.20;45.70;;;24.18;37.16;98240.47;4993410;28;20560;-77
2022/07/05 05:30:23;;;;;;;2.80;1.97;;;25.60;45.10;;;24.96;35.96;98232.84;5001057;28;20460;-79
2022/07/05 05:32:51;;;;;;;6.10;2.40;;;25.90;45.10;;;24.99;36.07;98223.94;5001995;28;20531;-78
2022/07/05 05:35:23;;;;;;;3.00;2.30;;;26.60;44.80;;;23.36;39.10;98225.88;4998994;28;20457;-78
2022/07/05 05:37:53;;;;;;;3.60;2.27;;;25.50;45.40;;;24.17;37.78;98244.34;5014205;28;20462;-78
2022/07/05 05:40:23;;;;;;;3.37;2.03;;;25.70;45.40;;;25.42;35.93;98228.31;5002732;28;20466;-80
2022/07/05 05:42:52;;;;;;;3.87;2.50;;;26.10;45.50;;;25.35;35.33;98245.31;5001436;28;20457;-76
2022/07/05 05:45:20;;;;;;;2.20;1.80;;;26.50;45.00;;;25.90;34.73;98240.88;5001283;28;20560;-75
2022/07/05 05:47:51;;;;;;;3.53;2.37;;;26.80;44.70;;;26.75;33.12;98242.13;4995060;28;20471;-75
2022/07/05 05:50:22;;;;;;;5.90;2.60;;;27.40;44.30;;;26.70;33.03;98245.06;4996914;28;20470;-75
2022/07/05 05:52:51;;;;;;;2.70;2.47;;;28.10;43.90;;;26.36;33.16;98241.75;5001220;28;20471;-74
2022/07/05 05:55:20;;;;;;;2.60;2.40;;;27.90;43.50;;;26.06;34.16;98238.53;4998199;28;20811;-75
2022/07/05 05:57:47;;;;;;;2.80;2.30;;;27.40;43.80;;;25.81;34.84;98238.03;4997363;28;20459;-76
2022/07/05 06:00:16;;;;;;;4.83;2.77;;;27.30;44.10;;;26.48;33.43;98243.97;4999991;28;20487;-76
2022/07/05 06:02:45;;;;;;;7.17;2.60;;;27.70;43.80;;;26.17;33.75;98242.75;4996881;28;20483;-74
2022/07/05 06:05:14;;;;;;;4.20;2.67;;;27.80;43.40;;;26.64;33.51;98246.34;4998706;28;20463;-74
2022/07/05 06:07:51;;;;;;;2.73;2.53;;;27.80;43.70;;;26.85;32.99;98247.41;4995374;28;20464;-74
2022/07/05 06:10:21;;;;;;;4.40;2.60;;;28.00;43.50;;;26.87;33.21;98234.09;4996375;28;21061;-73
2022/07/05 06:12:49;;;;;;;4.60;2.50;;;28.10;43.90;;;26.52;33.58;98249.66;4998999;28;20453;-75
2022/07/05 06:15:18;;;;;;;4.23;2.63;;;28.30;43.50;;;26.50;33.91;98258.31;5003019;28;20463;-75
2022/07/05 06:17:45;;;;;;;3.70;1.93;;;28.10;43.50;;;27.01;32.38;98245.09;4994779;28;20469;-74
2022/07/05 06:20:15;;;;;;;5.00;2.93;;;28.10;43.40;;;26.99;32.54;98241.84;5004315;28;20482;-74
2022/07/05 06:22:43;;;;;;;4.10;2.60;;;28.10;43.30;;;26.86;32.86;98251.84;5006094;28;20462;-75
2022/07/05 06:25:12;;;;;;;3.13;2.13;;;28.20;43.60;;;25.64;34.81;98233.13;5020713;28;20467;-73
2022/07/05 06:27:40;;;;;;;2.13;1.90;;;27.40;43.60;;;25.54;35.24;98244.41;4999166;28;20467;-74
2022/07/05 06:30:10;;;;;;;3.30;2.50;;;27.50;43.80;;;24.99;35.45;98199.06;5001830;28;20447;-73
2022/07/05 06:32:38;;;;;;;2.50;1.93;;;27.10;43.80;;;24.53;37.10;98250.41;5001900;28;21107;-73
2022/07/05 06:35:07;;;;;;;3.90;2.67;;;26.40;44.10;;;23.04;40.12;98243.84;4997987;28;20552;-73
2022/07/05 06:37:45;;;;;;;2.80;2.27;;;25.20;45.20;;;22.47;41.43;98247.13;5003343;28;20466;-73
2022/07/05 06:40:18;;;;;;;5.80;2.13;;;24.00;46.10;;;22.01;42.52;98243.59;4998801;28;20552;-73
2022/07/05 06:42:45;;;;;;;2.77;2.50;;;23.20;46.70;;;21.50;43.52;98252.94;4991147;28;20534;-73
2022/07/05 06:45:13;;;;;;;2.90;2.10;;;22.70;47.10;;;21.40;43.85;98245.56;4996250;28;20449;-74
2022/07/05 06:47:40;;;;;;;4.50;2.30;;;22.40;47.50;;;21.32;43.84;98251.66;4998172;28;20468;-73
2022/07/05 06:50:10;;;;;;;4.67;2.33;;;22.20;47.80;;;20.96;44.86;98249.81;4999989;28;20475;-74
2022/07/05 06:52:39;;;;;;;3.03;2.10;;;22.00;48.10;;;20.80;45.31;98257.22;5000469;28;20467;-75
2022/07/05 06:55:07;;;;;;;6.53;2.47;;;21.80;48.30;;;20.89;45.10;98257.50;4996982;28;20464;-73
2022/07/05 06:57:36;;;;;;;3.33;1.93;;;21.70;48.50;;;21.06;44.87;98251.72;4994935;28;20467;-72
2022/07/05 07:00:05;;;;;;;3.03;2.40;;;21.80;48.50;;;20.89;45.19;98258.34;5003380;28;20546;-73
2022/07/05 07:02:32;;;;;;;4.00;3.10;;;21.80;48.70;;;20.85;45.53;98262.75;5004565;28;20977;-74
2022/07/05 07:05:00;;;;;;;3.10;2.50;;;21.70;48.70;;;20.89;45.94;98258.34;5003025;28;20459;-74
2022/07/05 07:10:12;;;;;;;3.10;2.30;;;21.80;49.20;;;21.25;44.93;98259.34;5003024;28;20941;-75
2022/07/05 07:12:41;;;;;;;4.10;2.30;;;22.00;49.00;;;21.32;44.22;98265.38;5013910;28;20461;-74
2022/07/05 07:15:10;;;;;;;3.60;2.50;;;22.10;48.80;;;21.37;44.36;98268.09;4999760;28;20466;-74
2022/07/05 07:17:37;;;;;;;2.87;2.23;;;22.10;48.60;;;21.52;43.80;98270.78;5003775;28;20513;-73
2022/07/05 07:20:06;;;;;;;2.30;2.20;;;22.30;48.50;;;21.70;43.55;98267.72;5005352;28;20502;-73
2022/07/05 07:22:33;;;;;;;3.80;2.30;;;22.40;48.30;;;21.85;43.00;98266.81;4998898;28;20464;-72
2022/07/05 07:25:00;;;;;;;5.87;2.13;;;22.60;48.20;;;22.01;43.21;98267.56;4996581;28;20483;-73
2022/07/05 07:27:28;;;;;;;4.10;2.80;;;22.70;48.70;;;22.11;42.38;98272.97;4997591;28;20486;-73
2022/07/05 07:29:56;;;;;;;6.00;2.53;;;22.80;48.30;;;21.86;41.77;98218.94;4996852;28;20462;-73
2022/07/05 07:32:24;;;;;;;3.00;2.47;;;22.90;47.60;;;22.14;42.36;98266.09;5001384;28;20474;-73
2022/07/05 07:34:51;;;;;;;2.63;2.43;;;22.90;47.80;;;22.25;42.21;98269.56;4995665;28;20461;-72
2022/07/05 07:37:18;;;;;;;3.27;2.43;;;23.00;47.90;;;22.22;42.06;98265.50;5012914;28;20881;-72
2022/07/05 07:39:46;;;;;;;2.30;2.10;;;23.00;47.70;;;22.24;41.85;98268.78;4999869;28;20596;-72
2022/07/05 07:42:13;;;;;;;2.57;2.37;;;23.10;47.70;;;22.25;41.04;98266.81;5002371;28;20976;-73
2022/07/05 07:44:40;;;;;;;2.10;1.90;;;23.10;47.00;;;22.29;41.28;98263.22;4997535;28;20529;-72
2022/07/05 07:47:08;;;;;;;2.20;2.00;;;23.00;47.20;;;22.23;41.55;98267.13;4998814;28;20546;-72
2022/07/05 07:49:36;;;;;;;5.67;2.30;;;23.00;47.20;;;22.22;41.89;98262.72;5004876;28;20471;-72
2022/07/05 07:52:05;;;;;;;3.37;2.00;;;22.90;47.60;;;22.38;42.44;98257.13;5000689;28;20850;-72
2022/07/05 07:54:32;;;;;;;3.53;2.03;;;23.00;48.00;;;22.59;41.32;98258.59;5003397;28;20492;-73
2022/07/05 07:57:01;;;;;;;4.20;2.20;;;23.20;47.80;;;22.38;41.69;98224.09;4997235;28;20822;-73
2022/07/05 07:59:28;;;;;;;3.30;2.33;;;23.30;47.60;;;22.60;41.64;98265.75;5000556;28;21043;-72
2022/07/05 08:01:56;;;;;;;4.70;2.30;;;23.40;47.80;;;22.67;42.10;98265.41;5000069;28;20548;-89
2022/07/05 08:04:25;;;;;;;2.20;2.00;;;23.40;48.20;;;22.66;41.67;98252.75;5020054;28;20454;-73
2022/07/05 08:06:52;;;;;;;2.20;2.00;;;23.40;47.90;;;22.64;41.02;98263.25;4998955;28;20482;-73
2022/07/05 08:09:20;;;;;;;2.07;1.83;;;23.40;47.40;;;22.66;41.42;98269.28;5001555;28;20476;-79
2022/07/05 08:11:48;;;;;;;2.10;1.90;;;23.30;47.90;;;22.74;41.32;98267.84;5001418;28;20465;-77
2022/07/05 08:14:17;;;;;;;4.17;2.70;;;23.40;47.60;;;22.91;41.06;98268.22;4999698;28;20470;-77
2022/07/05 08:16:44;;;;;;;5.40;1.77;;;23.60;47.80;;;23.01;40.21;98270.03;5002566;28;20462;-80
2022/07/05 08:21:59;;;;;;;1.90;1.80;;;23.90;46.40;;;23.32;39.11;98271.69;5003196;28;20466;-74
2022/07/05 08:24:26;;;;;;;3.90;2.30;;;24.00;46.50;;;23.44;40.04;98268.50;5001340;28;20448;-77
2022/07/05 08:26:53;;;;;;;5.00;2.10;;;24.10;47.30;;;23.06;39.45;98222.34;4997468;28;20492;-75
2022/07/05 08:29:20;;;;;;;2.27;1.73;;;24.00;46.80;;;23.44;39.04;98266.56;5003433;28;20582;-76
2022/07/05 08:31:51;;;;;;;3.83;2.03;;;24.10;46.50;;;23.47;37.48;98267.91;5006990;28;20455;-74
2022/07/05 08:34:19;;;;;;;2.00;1.30;;;24.10;45.90;;;23.33;36.20;98270.56;5010498;28;20571;-75
2022/07/05 08:36:47;;;;;;;2.60;1.53;;;24.10;44.30;;;23.37;36.28;98260.59;5026929;28;20454;-76
2022/07/05 08:39:16;;;;;;;1.80;1.50;;;24.00;44.30;;;23.44;35.76;98255.53;5011422;28;20531;-75
2022/07/05 08:41:49;;;;;;;2.10;1.80;;;24.10;43.90;;;23.53;36.31;98263.97;4999428;28;20459;-75
2022/07/05 08:44:19;;;;;;;2.03;1.40;;;24.20;44.40;;;23.49;35.16;98262.91;4999611;28;20465;-77
2022/07/05 08:46:50;;;;;;;0.97;0.93;;;24.10;43.90;;;23.64;33.31;98270.19;4996866;28;20478;-76
2022/07/05 08:49:24;;;;;;;2.67;1.40;;;24.30;43.00;;;23.71;33.62;98269.81;5003707;28;20486;-76
2022/07/05 08:51:51;;;;;;;1.60;1.40;;;24.30;43.00;;;23.54;34.30;98257.34;5003665;28;20463;-77
2022/07/05 08:54:21;;;;;;;1.93;1.30;;;24.30;42.80;;;23.57;34.43;98267.78;5019661;28;20983;-78
2022/07/05 08:56:48;;;;;;;1.87;1.50;;;24.30;43.20;;;23.82;33.91;98271.34;5006513;28;20451;-77
2022/07/05 08:59:15;;;;;;;1.60;1.50;;;24.40;43.00;;;23.95;33.76;98263.41;5003491;28;20458;-80
2022/07/05 09:01:46;;;;;;;2.40;1.40;;;24.60;43.20;;;24.03;35.12;98265.53;4999821;28;20486;-78
2022/07/05 09:04:14;;;;;;;2.03;1.30;;;24.60;43.50;;;23.95;33.94;98261.47;5000290;28;20466;-78
2022/07/05 09:06:43;;;;;;;1.90;1.00;;;24.70;43.10;;;23.89;33.74;98269.00;5001175;28;21027;-76
2022/07/05 09:09:11;;;;;;;3.10;1.10;;;24.60;42.90;;;24.01;33.58;98263.03;5008459;28;20507;-78
2022/07/05 09:11:42;;;;;;;2.23;0.93;;;24.60;43.00;;;24.13;32.78;98268.16;5005930;28;20524;-77
2022/07/05 09:14:22;;;;;;;1.47;1.20;;;24.80;42.70;;;24.03;33.32;98266.34;4998199;28;20453;-79
2022/07/05 09:16:49;;;;;;;4.20;1.67;;;24.60;42.60;;;24.05;33.69;98269.66;4996795;28;20554;-78
2022/07/05 09:19:17;;;;;;;1.33;1.10;;;24.70;42.90;;;24.20;33.82;98262.25;5000920;28;20459;-78
2022/07/05 09:21:44;;;;;;;1.20;1.10;;;24.80;43.00;;;24.37;33.47;98263.66;4999357;28;21311;-78
2022/07/05 09:24:13;;;;;;;1.90;1.43;;;25.00;43.00;;;24.50;33.27;98257.38;5003374;28;20525;-78
2022/07/05 09:26:44;;;;;;;2.43;1.37;;;25.10;42.90;;;24.42;33.10;98272.69;4998506;28;20450;-78
2022/07/05 09:29:14;;;;;;;2.13;1.67;;;25.00;42.50;;;24.30;33.51;98267.59;4996713;28;20489;-77
2022/07/05 09:31:44;;;;;;;2.40;1.50;;;25.00;42.90;;;24.47;33.97;98277.28;5003544;28;20474;-75
2022/07/05 09:34:13;;;;;;;3.30;2.30;;;25.00;43.30;;;24.53;33.86;98276.09;5004957;28;20490;-77
2022/07/05 09:36:53;;;;;;;2.07;1.87;;;25.10;43.10;;;24.73;32.85;98285.13;5005924;28;20470;-75
2022/07/05 09:39:37;;;;;;;1.80;1.40;;;25.30;42.90;;;24.80;32.29;98254.41;4997631;28;20485;-77
2022/07/05 09:42:20;;;;;;;1.67;1.57;;;25.40;42.50;;;24.71;32.80;98279.91;4992662;28;20459;-75
2022/07/05 09:44:49;;;;;;;3.77;1.70;;;25.40;42.50;;;24.62;32.86;98288.06;4990702;28;20452;-76
2022/07/05 09:47:18;;;;;;;2.00;1.60;;;25.30;42.60;;;24.60;32.75;98275.69;4997800;28;20560;-77
2022/07/05 09:49:48;;;;;;;2.33;1.40;;;25.20;42.40;;;24.52;33.33;98271.69;5003120;28;20455;-76
2022/07/05 09:52:29;;;;;;;2.00;1.80;;;25.20;42.50;;;24.67;33.04;98267.84;5015256;28;21266;-77
2022/07/05 09:55:06;;;;;;;1.93;1.70;;;25.20;42.80;;;25.00;32.36;98251.25;4993722;28;20474;-75
2022/07/05 09:57:38;;;;;;;2.40;1.50;;;25.60;42.70;;;25.07;32.17;98270.19;4999028;28;20562;-75
2022/07/05 10:00:10;;;;;;;2.00;1.30;;;25.60;42.20;;;24.78;32.34;98257.44;4996984;28;20478;-75
2022/07/05 10:02:42;;;;;;;1.17;1.10;;;25.50;42.10;;;24.85;32.05;98262.56;5003024;28;20451;-75
2022/07/05 10:05:12;;;;;;;2.30;1.57;;;25.40;42.20;;;25.01;32.23;98266.69;4998320;28;20464;-76
2022/07/05 10:07:44;;;;;;;1.43;1.33;;;25.60;42.60;;;24.99;31.56;98262.63;4998971;28;20570;-75
2022/07/05 10:10:14;;;;;;;4.10;1.20;;;25.60;41.70;;;24.82;32.01;98263.19;5007192;28;21027;-75
2022/07/05 10:12:44;;;;;;;4.77;1.73;;;25.40;42.00;;;25.01;31.77;98263.13;4994901;28;20535;-76
2022/07/05 10:15:15;;;;;;;1.77;1.50;;;25.50;42.00;;;25.43;32.10;98265.91;4999393;28;20467;-75
2022/07/05 10:17:45;;;;;;;1.67;1.33;;;25.80;42.10;;;25.65;29.53;98267.16;5001477;28;20870;-74
2022/07/05 10:20:25;;;;;;;1.33;1.23;;;26.10;41.00;;;25.64;30.66;98268.28;5000290;28;20606;-75
2022/07/05 10:22:53;;;;;;;2.30;1.60;;;26.10;41.20;;;25.72;31.15;98262.00;5012598;28;20472;-74
2022/07/05 10:25:22;;;;;;;2.50;1.80;;;26.20;41.80;;;25.99;31.01;98255.59;4995717;28;20460;-76
2022/07/05 10:27:53;;;;;;;1.70;1.43;;;26.40;42.00;;;25.59;31.23;98263.69;5001251;28;20694;-76
2022/07/05 10:30:23;;;;;;;2.27;1.50;;;26.40;41.70;;;25.02;31.50;98276.66;5005407;28;20542;-75
2022/07/05 10:32:51;;;;;;;1.50;1.40;;;25.80;41.40;;;24.60;32.18;98284.78;4997332;28;20487;-76